Etna, Ohio
Current Conditions -  °F | °C
As of 10:51 AM on Monday 24 Nov 2014 (Local Time) from KCMH Reporting Station
Overcast Overcast  
Wind Chill: 63°   Ceiling: 4800
Heat Index: 63°   Visibility: 10mi
Dew Point: 47°   Wind: 32mph
Humidity: 56%   Direction: 210°SSW
Pressure: 29.36"   Gusts: 52mph
Location:  39.96°N, 82.68°W
Report Text: KCMH 241551Z 21028G45KT 10SM BKN048 BKN060 OVC075 17/08 A2936 RMK AO2 PK WND 22045/1549 SLP940 T01720083 $
Loading
Personal Weather Stations






























Interactive Weather Map New forecast layout! Learn more

10-Day Weather Forecast

Advertisements
Track Severe Weather on mobile